Time;durP1;ratioP1;P1;durP2;ratioP2;P2;SDS_P1;SDS_P2;PMS_P1;PMS_P2;Temp;Humidity;BMP_temperature;BMP_pressure;BME280_temperature;BME280_humidity;BME280_pressure;Samples;Min_cycle;Max_cycle;Signal;HPM_P1;HPM_P2
2021/04/17 00:01:42;;;;;;;;;;;179.30;1638.40;;;;;;5053507;28;20319;-71
2021/04/17 00:04:08;;;;;;;;;;;179.20;1638.40;;;;;;5053475;28;19904;-71
2021/04/17 00:06:34;;;;;;;;;;;154.30;1689.60;;;;;;5053392;28;19904;-71
2021/04/17 00:09:03;;;;;;;;;;;154.40;1689.60;;;;;;5053923;28;19927;-72
2021/04/17 00:11:28;;;;;;;;;;;154.30;1689.60;;;;;;5053281;28;20046;-71
2021/04/17 00:13:54;;;;;;;;;;;154.40;1664.00;;;;;;5053144;28;19991;-70
2021/04/17 00:16:20;;;;;;;;;;;179.30;1612.80;;;;;;5053290;28;19919;-65
2021/04/17 00:18:46;;;;;;;;;;;179.20;1638.40;;;;;;5053222;28;19908;-71
2021/04/17 00:21:12;;;;;;;;;;;154.50;1638.40;;;;;;5053037;28;19908;-70
2021/04/17 00:23:37;;;;;;;;;;;154.50;1664.00;;;;;;5052706;28;19904;-70
2021/04/17 00:26:03;;;;;;;;;;;154.50;1638.40;;;;;;5052982;28;20343;-65
2021/04/17 00:28:29;;;;;;;;;;;154.30;1689.60;;;;;;5053200;28;20019;-65
2021/04/17 00:30:54;;;;;;;;;;;153.90;1740.80;;;;;;5100170;22;19931;-73
2021/04/17 00:33:20;;;;;;;;;;;154.00;1740.80;;;;;;5034839;28;20008;-73
2021/04/17 00:35:46;;;;;;;;;;;154.00;1740.80;;;;;;5028936;28;19916;-72
2021/04/17 00:38:11;;;;;;;;;;;128.70;1843.20;;;;;;5034880;28;19905;-73
2021/04/17 00:40:37;;;;;;;;;;;128.50;1868.80;;;;;;5034777;28;19959;-72
2021/04/17 00:43:03;;;;;;;;;;;128.70;1843.20;;;;;;5033754;28;19905;-71
2021/04/17 00:45:28;;;;;;;;;;;128.90;1766.40;;;;;;5034459;28;19935;-70
2021/04/17 00:47:54;;;;;;;;;;;128.90;1792.00;;;;;;5037416;28;19904;-71
2021/04/17 00:50:19;;;;;;;;;;;128.70;1817.60;;;;;;5060000;23;19959;-71
2021/04/17 00:52:45;;;;;;;;;;;153.60;1792.00;;;;;;5044472;28;19964;-71
2021/04/17 00:55:11;;;;;;;;;;;153.60;1766.40;;;;;;5032957;28;20363;-71
2021/04/17 00:57:37;;;;;;;;;;;128.90;1766.40;;;;;;5043490;28;20403;-71
2021/04/17 01:00:04;;;;;;;;;;;153.90;1740.80;;;;;;5046533;28;19999;-72
2021/04/17 01:02:33;;;;;;;;;;;154.40;1689.60;;;;;;5041468;28;20347;-72
2021/04/17 01:05:00;;;;;;;;;;;154.50;1664.00;;;;;;5039578;28;19905;-70
2021/04/17 01:07:28;;;;;;;;;;;154.20;1689.60;;;;;;5051178;23;19922;-70
2021/04/17 01:10:03;;;;;;;;;;;153.80;1740.80;;;;;;5012049;28;19910;-70
2021/04/17 01:12:30;;;;;;;;;;;128.80;1792.00;;;;;;5012635;28;20056;-69
2021/04/17 01:14:56;;;;;;;;;;;128.70;1817.60;;;;;;5012598;28;19912;-69
2021/04/17 01:17:22;;;;;;;;;;;153.60;1792.00;;;;;;5012794;28;19912;-69
2021/04/17 01:19:48;;;;;;;;;;;153.70;1766.40;;;;;;5013140;28;19909;-71
2021/04/17 01:22:16;;;;;;;;;;;153.60;1792.00;;;;;;5012954;28;20282;-72
2021/04/17 01:24:45;;;;;;;;;;;153.80;1766.40;;;;;;5005865;28;19952;-69
2021/04/17 01:27:11;;;;;;;;;;;153.90;1740.80;;;;;;5012832;28;20319;-70
2021/04/17 01:29:39;;;;;;;;;;;153.80;1740.80;;;;;;5012690;28;19906;-70
2021/04/17 01:32:07;;;;;;;;;;;153.70;1766.40;;;;;;5012563;28;19967;-69
2021/04/17 01:34:33;;;;;;;;;;;153.60;1792.00;;;;;;5012685;28;19951;-69
2021/04/17 01:36:59;;;;;;;;;;;153.90;1740.80;;;;;;5013774;28;20012;-71
2021/04/17 01:39:26;;;;;;;;;;;153.90;1740.80;;;;;;5016576;28;19968;-71
2021/04/17 01:41:54;;;;;;;;;;;153.80;1740.80;;;;;;5016144;28;19953;-71
2021/04/17 01:44:20;;;;;;;;;;;154.10;1715.20;;;;;;5002897;28;19905;-71
2021/04/17 01:47:03;;;;;;;;;;;153.90;1740.80;;;;;;5016438;28;19906;-71
2021/04/17 01:49:30;;;;;;;;;;;153.90;1740.80;;;;;;5013193;28;19912;-71
2021/04/17 01:51:57;;;;;;;;;;;153.80;1740.80;;;;;;5016041;28;19932;-70
2021/04/17 01:54:24;;;;;;;;;;;153.80;1740.80;;;;;;5016399;28;19919;-72
2021/04/17 01:56:51;;;;;;;;;;;153.90;1740.80;;;;;;5015802;28;19905;-70
2021/04/17 01:59:18;;;;;;;;;;;153.90;1740.80;;;;;;5016282;28;19909;-70
2021/04/17 02:01:44;;;;;;;;;;;154.00;1715.20;;;;;;5148697;23;19921;-71
2021/04/17 02:04:09;;;;;;;;;;;153.80;1740.80;;;;;;5048980;28;20420;-69
2021/04/17 02:06:35;;;;;;;;;;;153.70;1740.80;;;;;;5047996;28;20413;-69
2021/04/17 02:09:01;;;;;;;;;;;153.90;1740.80;;;;;;5200934;23;19929;-71
2021/04/17 02:11:27;;;;;;;;;;;153.70;1766.40;;;;;;5031141;28;19920;-70
2021/04/17 02:13:52;;;;;;;;;;;153.80;1740.80;;;;;;5030347;28;20290;-70
2021/04/17 02:16:21;;;;;;;;;;;153.80;1740.80;;;;;;5018074;28;19905;-69
2021/04/17 02:18:56;;;;;;;;;;;153.80;1766.40;;;;;;5029558;28;19959;-69
2021/04/17 02:21:25;;;;;;;;;;;153.60;1766.40;;;;;;5028909;28;19916;-69
2021/04/17 02:23:51;;;;;;;;;;;153.60;1766.40;;;;;;5035154;28;19912;-67
2021/04/17 02:26:16;;;;;;;;;;;153.90;1740.80;;;;;;5034804;28;19905;-68
2021/04/17 02:28:42;;;;;;;;;;;128.90;1792.00;;;;;;5031096;28;19958;-69
2021/04/17 02:31:08;;;;;;;;;;;128.90;1792.00;;;;;;5016562;28;20386;-69
2021/04/17 02:33:33;;;;;;;;;;;128.80;1817.60;;;;;;5034851;28;19916;-69
2021/04/17 02:35:59;;;;;;;;;;;153.60;1792.00;;;;;;5030254;28;19909;-69
2021/04/17 02:38:25;;;;;;;;;;;128.90;1792.00;;;;;;5014401;28;19909;-69
2021/04/17 02:40:51;;;;;;;;;;;128.90;1792.00;;;;;;5033179;28;20125;-68
2021/04/17 02:43:16;;;;;;;;;;;128.80;1792.00;;;;;;5034922;28;19941;-69
2021/04/17 02:45:42;;;;;;;;;;;128.80;1792.00;;;;;;5014581;28;19905;-68
2021/04/17 02:48:08;;;;;;;;;;;153.80;1740.80;;;;;;5034978;28;20354;-69
2021/04/17 02:50:33;;;;;;;;;;;153.80;1740.80;;;;;;5034867;28;19959;-68
2021/04/17 02:52:59;;;;;;;;;;;154.00;1715.20;;;;;;5034862;28;19911;-70
2021/04/17 02:55:24;;;;;;;;;;;128.90;1766.40;;;;;;5034852;28;19940;-68
2021/04/17 02:57:50;;;;;;;;;;;153.70;1740.80;;;;;;5034299;28;20367;-67
2021/04/17 03:00:17;;;;;;;;;;;128.90;1766.40;;;;;;5138962;23;20304;-71
2021/04/17 03:02:43;;;;;;;;;;;128.70;1792.00;;;;;;5032943;28;19905;-70
2021/04/17 03:05:09;;;;;;;;;;;128.90;1766.40;;;;;;5034547;28;19928;-70
2021/04/17 03:07:34;;;;;;;;;;;128.90;1766.40;;;;;;5034458;28;20014;-69
2021/04/17 03:10:00;;;;;;;;;;;128.90;1766.40;;;;;;5032347;28;19912;-68
2021/04/17 03:12:26;;;;;;;;;;;128.90;1766.40;;;;;;5033921;28;19920;-68
2021/04/17 03:14:51;;;;;;;;;;;128.90;1792.00;;;;;;5034160;28;19912;-68
2021/04/17 03:19:52;;;;;;;;;;;128.90;1792.00;;;;;;5101710;23;19970;-67
2021/04/17 03:22:18;;;;;;;;;;;153.70;1766.40;;;;;;5074072;28;19908;-67
2021/04/17 03:24:44;;;;;;;;;;;153.60;1766.40;;;;;;5073851;28;20281;-68
2021/04/17 03:29:39;;;;;;;;;;;153.60;1740.80;;;;;;5043880;28;20305;-69
2021/04/17 03:32:05;;;;;;;;;;;128.70;1792.00;;;;;;5053815;28;19913;-73
2021/04/17 03:34:31;;;;;;;;;;;;;;;;;;5053924;28;20362;-73
2021/04/17 03:36:57;;;;;;;;;;;;;;;;;;5035909;28;19992;-72
2021/04/17 03:39:23;;;;;;;;;;;;;;;;;;5028396;28;19905;-72
2021/04/17 03:41:49;;;;;;;;;;;;;;;;;;5053541;28;19912;-72
2021/04/17 03:44:15;;;;;;;;;;;;;;;;;;5053784;28;19905;-72
2021/04/17 03:46:41;;;;;;;;;;;;;;;;;;5053567;28;19995;-71
2021/04/17 03:49:07;;;;;;;;;;;;;;;;;;5035333;28;20000;-71
2021/04/17 03:51:33;;;;;;;;;;;;;;;;;;5039401;28;20011;-71
2021/04/17 03:53:59;;;;;;;;;;;;;;;;;;5053625;28;19909;-72
2021/04/17 03:56:26;;;;;;;;;;;103.10;1894.40;;;;;;5042297;23;19920;-71
2021/04/17 03:58:51;;;;;;;;;;;103.20;2227.20;;;;;;5031806;28;19978;-72
2021/04/17 04:01:17;;;;;;;;;;;128.20;1868.80;;;;;;5048784;28;19950;-70
2021/04/17 04:03:42;;;;;;;;;;;128.30;1868.80;;;;;;5032275;28;19909;-70
2021/04/17 04:06:08;;;;;;;;;;;128.50;1817.60;;;;;;5050724;28;20320;-69
2021/04/17 04:08:34;;;;;;;;;;;128.50;1817.60;;;;;;5048293;28;19905;-72
2021/04/17 04:10:59;;;;;;;;;;;128.70;1817.60;;;;;;5053113;28;20309;-70
2021/04/17 04:13:25;;;;;;;;;;;128.50;1843.20;;;;;;5049617;28;19999;-71
2021/04/17 04:15:50;;;;;;;;;;;128.90;1817.60;;;;;;5050546;28;19905;-70
2021/04/17 04:18:16;;;;;;;;;;;153.70;1792.00;;;;;;5048588;28;19943;-70
2021/04/17 04:20:42;;;;;;;;;;;128.90;1792.00;;;;;;5049925;28;19959;-70
2021/04/17 04:23:07;;;;;;;;;;;153.60;1792.00;;;;;;5050386;28;19927;-70
2021/04/17 04:25:33;;;;;;;;;;;128.90;1817.60;;;;;;5048013;28;19919;-68
2021/04/17 04:27:59;;;;;;;;;;;153.80;1766.40;;;;;;5050537;28;19939;-71
2021/04/17 04:30:25;;;;;;;;;;;153.90;1740.80;;;;;;5048066;28;19970;-70
2021/04/17 04:32:50;;;;;;;;;;;154.00;1766.40;;;;;;5050288;28;19913;-71
2021/04/17 04:35:16;;;;;;;;;;;154.30;1689.60;;;;;;5051072;28;20279;-69
2021/04/17 04:37:42;;;;;;;;;;;154.30;1689.60;;;;;;5049522;28;20397;-69
2021/04/17 04:40:08;;;;;;;;;;;154.00;1740.80;;;;;;5050520;28;19957;-68
2021/04/17 04:42:34;;;;;;;;;;;153.80;1766.40;;;;;;5047257;28;19920;-70
2021/04/17 04:45:00;;;;;;;;;;;128.90;1792.00;;;;;;5050018;28;19927;-69
2021/04/17 04:47:25;;;;;;;;;;;128.80;1817.60;;;;;;5047097;28;19952;-69
2021/04/17 04:49:51;;;;;;;;;;;153.60;1792.00;;;;;;5038668;28;19908;-68
2021/04/17 04:52:16;;;;;;;;;;;128.90;1817.60;;;;;;5052801;28;19913;-68
2021/04/17 04:54:42;;;;;;;;;;;128.90;1817.60;;;;;;5052160;28;19908;-69
2021/04/17 04:57:08;;;;;;;;;;;128.80;1843.20;;;;;;5168981;22;19921;-69
2021/04/17 04:59:34;;;;;;;;;;;128.80;1843.20;;;;;;5015746;28;20388;-70
2021/04/17 05:02:00;;;;;;;;;;;153.70;1817.60;;;;;;5015514;28;19905;-70
2021/04/17 05:04:26;;;;;;;;;;;154.10;1766.40;;;;;;5034063;28;19912;-71
2021/04/17 05:06:52;;;;;;;;;;;154.40;1740.80;;;;;;5015262;28;19935;-69
2021/04/17 05:09:17;;;;;;;;;;;154.10;1766.40;;;;;;5034657;28;19905;-69
2021/04/17 05:11:43;;;;;;;;;;;153.90;1792.00;;;;;;5161041;23;19971;-70
2021/04/17 05:14:08;;;;;;;;;;;153.90;1817.60;;;;;;5043996;28;19943;-71
2021/04/17 05:16:34;;;;;;;;;;;154.00;1792.00;;;;;;5047218;28;20682;-70
2021/04/17 05:18:59;;;;;;;;;;;154.10;1792.00;;;;;;5061172;28;19905;-71
2021/04/17 05:21:25;;;;;;;;;;;154.40;1740.80;;;;;;5065698;28;19908;-72
2021/04/17 05:23:51;;;;;;;;;;;179.30;1715.20;;;;;;5043123;28;19904;-73
2021/04/17 05:26:16;;;;;;;;;;;179.20;1740.80;;;;;;5045552;28;20046;-71
2021/04/17 05:28:42;;;;;;;;;;;179.40;1715.20;;;;;;5044724;28;19908;-73
2021/04/17 05:31:07;;;;;;;;;;;179.40;1715.20;;;;;;5043716;28;20374;-73
2021/04/17 05:33:33;;;;;;;;;;;179.40;1715.20;;;;;;5068254;28;20258;-72
2021/04/17 05:35:58;;;;;;;;;;;179.40;1715.20;;;;;;5076104;28;20345;-72
2021/04/17 05:38:24;;;;;;;;;;;;;;;;;;5074514;28;19904;-71
2021/04/17 05:40:50;;;;;;;;;;;;;;;;;;5062593;28;20350;-72
2021/04/17 05:43:16;;;;;;;;;;;;;;;;;;5068587;28;19962;-72
2021/04/17 05:45:42;;;;;;;;;;;;;;;;;;5072585;28;19950;-72
2021/04/17 05:48:08;;;;;;;;;;;;;;;;;;5066427;28;19950;-73
2021/04/17 05:50:34;;;;;;;;;;;;;;;;;;5075904;28;19951;-70
2021/04/17 05:53:00;;;;;;;;;;;;;;;;;;5075861;28;19919;-71
2021/04/17 05:55:26;;;;;;;;;;;;;;;;;;5075971;28;19909;-71
2021/04/17 05:57:51;;;;;;;;;;;205.10;1561.60;;;;;;5075701;28;19991;-71
2021/04/17 06:00:17;;;;;;;;;;;205.00;1561.60;;;;;;5075951;28;19955;-72
2021/04/17 06:02:43;;;;;;;;;;;205.20;1561.60;;;;;;5075640;28;19974;-72
2021/04/17 06:05:09;;;;;;;;;;;205.60;1536.00;;;;;;5075600;28;19905;-72
2021/04/17 06:07:34;;;;;;;;;;;205.60;1510.40;;;;;;5075843;28;19986;-71
2021/04/17 06:10:00;;;;;;;;;;;230.40;1484.80;;;;;;5075556;28;19911;-72
2021/04/17 06:12:25;;;;;;;;;;;205.70;1484.80;;;;;;5075179;28;19924;-72
2021/04/17 06:14:51;;;;;;;;;;;205.40;1484.80;;;;;;5037632;22;19921;-72
2021/04/17 06:17:17;;;;;;;;;;;205.60;1510.40;;;;;;5035986;28;20090;-72
2021/04/17 06:19:42;;;;;;;;;;;230.40;1484.80;;;;;;5033609;28;19905;-74
2021/04/17 06:22:08;;;;;;;;;;;230.40;1484.80;;;;;;5033145;28;19944;-73
2021/04/17 06:24:33;;;;;;;;;;;230.40;1510.40;;;;;;5035388;28;19909;-74
2021/04/17 06:26:59;;;;;;;;;;;;;;;;;;5035175;28;20275;-72
2021/04/17 06:29:25;;;;;;;;;;;;;;;;;;5017527;28;19949;-74
2021/04/17 06:34:27;;;;;;;;;;;231.00;1433.60;;;;;;5053681;26;20347;-73
2021/04/17 06:36:52;;;;;;;;;;;230.60;1484.80;;;;;;5055241;28;19911;-72
2021/04/17 06:39:18;;;;;;;;;;;230.60;1484.80;;;;;;5055071;28;19909;-72
2021/04/17 06:41:45;;;;;;;;;;;230.80;1689.60;;;;;;5036942;28;20306;-72
2021/04/17 06:44:11;;;;;;;;;;;231.10;1433.60;;;;;;5054812;28;19950;-72
2021/04/17 06:46:38;;;;;;;;;;;256.10;1382.40;;;;;;5054962;28;19904;-74
2021/04/17 06:49:04;;;;;;;;;;;;;;;;;;5054983;28;19905;-74
2021/04/17 06:51:30;;;;;;;;;;;;;;;;;;5054725;28;19948;-74
2021/04/17 06:53:56;;;;;;;;;;;;;;;;;;5054745;28;19904;-73
2021/04/17 06:56:22;;;;;;;;;;;;;;;;;;5054794;28;19996;-73
2021/04/17 06:58:48;;;;;;;;;;;;;;;;;;5054676;28;19954;-72
2021/04/17 07:01:14;;;;;;;;;;;282.00;1305.60;;;;;;5054592;28;20281;-73
2021/04/17 07:03:39;;;;;;;;;;;282.00;1305.60;;;;;;5030071;28;20432;-73
2021/04/17 07:06:05;;;;;;;;;;;282.00;1280.00;;;;;;5054557;28;19909;-73
2021/04/17 07:08:30;;;;;;;;;;;282.20;1254.40;;;;;;5054386;28;19905;-72
2021/04/17 07:10:58;;;;;;;;;;;282.10;1280.00;;;;;;5054784;28;19967;-72
2021/04/17 07:13:25;;;;;;;;;;;282.10;1254.40;;;;;;5054219;28;19909;-73
2021/04/17 07:15:51;;;;;;;;;;;282.40;1254.40;;;;;;5036296;28;20278;-73
2021/04/17 07:18:25;;;;;;;;;;;282.50;1228.80;;;;;;5053953;28;19912;-72
2021/04/17 07:20:51;;;;;;;;;;;282.50;1203.20;;;;;;5062981;22;19990;-73
2021/04/17 07:23:40;;;;;;;;;;;282.50;1228.80;;;;;;5053783;28;20385;-73
2021/04/17 07:26:13;;;;;;;;;;;307.30;1254.40;;;;;;5048375;28;19905;-72
2021/04/17 07:28:40;;;;;;;;;;;307.50;1280.00;;;;;;5053748;28;20359;-73
2021/04/17 07:31:06;;;;;;;;;;;307.60;1228.80;;;;;;5154814;22;19920;-73
2021/04/17 07:33:31;;;;;;;;;;;307.80;1203.20;;;;;;5073941;28;20362;-72
2021/04/17 07:36:00;;;;;;;;;;;307.90;1177.60;;;;;;5074040;28;20022;-72
2021/04/17 07:38:36;;;;;;;;;;;308.10;1177.60;;;;;;5074272;28;19950;-71
2021/04/17 07:41:04;;;;;;;;;;;308.10;1152.00;;;;;;5061143;28;19977;-72
2021/04/17 07:43:48;;;;;;;;;;;333.00;1203.20;;;;;;5060089;28;20274;-72
2021/04/17 07:46:15;;;;;;;;;;;333.10;1152.00;;;;;;5055755;28;19931;-72
2021/04/17 07:48:41;;;;;;;;;;;333.30;1152.00;;;;;;5073762;28;19920;-73
2021/04/17 07:51:08;;;;;;;;;;;333.30;1152.00;;;;;;5055546;28;19916;-71
2021/04/17 07:53:33;;;;;;;;;;;333.40;1152.00;;;;;;5073528;28;20077;-71
2021/04/17 07:56:18;;;;;;;;;;;333.50;1152.00;;;;;;5073648;22;19983;-72
2021/04/17 07:58:47;;;;;;;;;;;333.40;1177.60;;;;;;5053352;28;19916;-70
2021/04/17 08:01:13;;;;;;;;;;;333.70;1126.40;;;;;;5035478;28;19905;-70
2021/04/17 08:03:41;;;;;;;;;;;333.60;1152.00;;;;;;5053087;28;20387;-71
2021/04/17 08:06:06;;;;;;;;;;;333.70;1100.80;;;;;;5053477;28;19912;-72
2021/04/17 08:08:32;;;;;;;;;;;333.70;1100.80;;;;;;5053329;28;19905;-71
2021/04/17 08:10:57;;;;;;;;;;;358.50;1100.80;;;;;;5053254;28;20449;-70
2021/04/17 08:13:23;;;;;;;;;;;358.50;1075.20;;;;;;5053022;28;19990;-72
2021/04/17 08:15:49;;;;;;;;;;;358.70;1075.20;;;;;;5053225;28;19958;-71
2021/04/17 08:18:14;;;;;;;;;;;358.80;1049.60;;;;;;5053262;28;19912;-71
2021/04/17 08:20:40;;;;;;;;;;;358.90;1049.60;;;;;;5053081;28;19912;-72
2021/04/17 08:23:06;;;;;;;;;;;358.80;998.40;;;;;;5092170;22;20010;-72
2021/04/17 08:25:33;;;;;;;;;;;358.90;1024.00;;;;;;5072684;28;20270;-72
2021/04/17 08:27:58;;;;;;;;;;;359.00;1024.00;;;;;;5055051;28;19974;-69
2021/04/17 08:30:25;;;;;;;;;;;359.10;972.80;;;;;;5072438;28;19904;-70
2021/04/17 08:32:51;;;;;;;;;;;359.20;947.20;;;;;;5073108;28;20399;-72
2021/04/17 08:35:20;;;;;;;;;;;384.00;947.20;;;;;;5072551;28;19908;-71
2021/04/17 08:37:55;;;;;;;;;;;384.10;972.80;;;;;;5072822;28;20348;-72
2021/04/17 08:40:36;;;;;;;;;;;384.20;947.20;;;;;;5054633;28;19958;-72
2021/04/17 08:45:27;;;;;;;;;;;384.40;921.60;;;;;;5140462;22;19921;-71
2021/04/17 08:47:56;;;;;;;;;;;384.60;921.60;;;;;;5052549;28;20325;-72
2021/04/17 08:50:34;;;;;;;;;;;384.60;870.40;;;;;;5052674;28;20004;-72
2021/04/17 08:53:04;;;;;;;;;;;384.60;896.00;;;;;;5034531;28;19916;-72
2021/04/17 08:55:33;;;;;;;;;;;384.70;896.00;;;;;;5052512;28;19905;-71
2021/04/17 08:58:10;;;;;;;;;;;384.80;870.40;;;;;;5052423;28;19919;-73
2021/04/17 09:00:37;;;;;;;;;;;384.80;921.60;;;;;;5052385;28;19912;-73
2021/04/17 09:03:03;;;;;;;;;;;409.60;947.20;;;;;;5052435;28;19912;-71
2021/04/17 09:05:41;;;;;;;;;;;384.90;921.60;;;;;;5052908;28;19905;-73
2021/04/17 09:08:14;;;;;;;;;;;409.60;947.20;;;;;;5170448;22;19924;-73
2021/04/17 09:10:40;;;;;;;;;;;384.90;921.60;;;;;;5052585;28;20353;-73
2021/04/17 09:13:09;;;;;;;;;;;384.80;896.00;;;;;;5034403;28;19912;-74
2021/04/17 09:16:04;;;;;;;;;;;384.80;921.60;;;;;;5034525;28;19905;-74
2021/04/17 09:18:32;;;;;;;;;;;384.60;921.60;;;;;;4951978;28;19906;-74
2021/04/17 09:21:01;;;;;;;;;;;384.50;896.00;;;;;;4952293;28;19964;-72
2021/04/17 09:23:41;;;;;;;;;;;384.30;921.60;;;;;;4952080;28;19930;-72
2021/04/17 09:26:07;;;;;;;;;;;384.40;921.60;;;;;;5149381;23;19928;-73
2021/04/17 09:28:37;;;;;;;;;;;384.40;896.00;;;;;;5066971;28;19909;-72
2021/04/17 09:31:03;;;;;;;;;;;384.20;921.60;;;;;;5054169;28;19920;-72
2021/04/17 09:33:29;;;;;;;;;;;384.20;921.60;;;;;;5070858;28;19912;-72
2021/04/17 09:35:54;;;;;;;;;;;384.10;896.00;;;;;;5054234;28;20326;-71
2021/04/17 09:38:22;;;;;;;;;;;384.00;921.60;;;;;;5072112;28;19946;-72
2021/04/17 09:40:48;;;;;;;;;;;384.00;921.60;;;;;;5071873;28;19995;-73
2021/04/17 09:45:50;;;;;;;;;;;359.10;947.20;;;;;;5051033;28;19943;-74
2021/04/17 09:48:17;;;;;;;;;;;359.00;972.80;;;;;;5068033;28;20001;-74
2021/04/17 09:50:42;;;;;;;;;;;359.00;947.20;;;;;;5065168;28;20386;-73
2021/04/17 09:53:09;;;;;;;;;;;359.00;972.80;;;;;;5072037;28;19943;-73
2021/04/17 09:55:51;;;;;;;;;;;358.90;972.80;;;;;;5070354;28;20277;-73
2021/04/17 09:58:25;;;;;;;;;;;358.80;972.80;;;;;;5075606;28;20051;-73
2021/04/17 10:00:51;;;;;;;;;;;358.90;972.80;;;;;;5075649;28;19905;-73
2021/04/17 10:03:29;;;;;;;;;;;359.10;947.20;;;;;;5075415;28;20062;-73
2021/04/17 10:05:54;;;;;;;;;;;359.00;972.80;;;;;;5075512;28;19908;-72
2021/04/17 10:08:30;;;;;;;;;;;359.10;947.20;;;;;;5073947;28;19912;-73
2021/04/17 10:10:56;;;;;;;;;;;358.90;972.80;;;;;;5075268;28;20273;-73
2021/04/17 10:13:42;;;;;;;;;;;359.10;972.80;;;;;;5075238;28;20281;-72
2021/04/17 10:16:08;;;;;;;;;;;359.10;998.40;;;;;;5067608;28;20369;-73
2021/04/17 10:18:35;;;;;;;;;;;359.10;972.80;;;;;;5075470;28;20002;-71
2021/04/17 10:21:00;;;;;;;;;;;359.30;972.80;;;;;;5075249;28;20300;-73
2021/04/17 10:23:26;;;;;;;;;;;359.20;972.80;;;;;;5075294;28;19912;-72
2021/04/17 10:25:52;;;;;;;;;;;359.30;998.40;;;;;;5075444;28;20003;-72
2021/04/17 10:28:18;;;;;;;;;;;359.20;972.80;;;;;;5075452;28;20265;-73
2021/04/17 10:30:45;;;;;;;;;;;359.30;972.80;;;;;;5075061;28;19938;-73
2021/04/17 10:33:15;;;;;;;;;;;384.00;972.80;;;;;;5073859;28;20210;-74
2021/04/17 10:35:41;;;;;;;;;;;384.00;972.80;;;;;;5073491;28;19939;-74
2021/04/17 10:38:06;;;;;;;;;;;359.30;972.80;;;;;;5073696;28;20384;-74
2021/04/17 10:40:32;;;;;;;;;;;359.20;972.80;;;;;;5074893;28;20368;-73
2021/04/17 10:43:01;;;;;;;;;;;359.10;998.40;;;;;;5074827;28;20306;-73
2021/04/17 10:45:29;;;;;;;;;;;359.10;998.40;;;;;;5088433;28;19922;-74
2021/04/17 10:47:59;;;;;;;;;;;359.10;1024.00;;;;;;5091014;28;20003;-73
2021/04/17 10:50:25;;;;;;;;;;;359.10;1024.00;;;;;;5085365;28;19998;-72
2021/04/17 10:52:56;;;;;;;;;;;359.10;1024.00;;;;;;5094998;28;19970;-73
2021/04/17 10:55:31;;;;;;;;;;;359.00;1049.60;;;;;;5095059;28;19904;-74
2021/04/17 10:57:57;;;;;;;;;;;359.00;1049.60;;;;;;5094957;28;19927;-72
2021/04/17 11:00:29;;;;;;;;;;;359.00;1049.60;;;;;;5094772;28;20346;-73
2021/04/17 11:02:55;;;;;;;;;;;359.00;1075.20;;;;;;5194978;23;20003;-73
2021/04/17 11:05:21;;;;;;;;;;;358.80;1100.80;;;;;;5089547;28;19990;-72
2021/04/17 11:07:46;;;;;;;;;;;358.80;1100.80;;;;;;5076555;28;19908;-72
2021/04/17 11:10:12;;;;;;;;;;;358.90;1100.80;;;;;;5094611;28;19908;-74
2021/04/17 11:12:38;;;;;;;;;;;358.80;1126.40;;;;;;5094627;28;19912;-73
2021/04/17 11:15:14;;;;;;;;;;;358.80;1126.40;;;;;;5094162;28;19904;-71
2021/04/17 11:17:39;;;;;;;;;;;358.90;1126.40;;;;;;5075589;28;19905;-72
2021/04/17 11:22:38;;;;;;;;;;;358.90;1126.40;;;;;;5041739;28;19921;-73
2021/04/17 11:25:05;;;;;;;;;;;359.00;1126.40;;;;;;5053883;28;19970;-72
2021/04/17 11:27:31;;;;;;;;;;;359.00;1126.40;;;;;;5054192;28;19970;-72
2021/04/17 11:29:57;;;;;;;;;;;358.90;1152.00;;;;;;5054003;28;19923;-72
2021/04/17 11:32:25;;;;;;;;;;;358.70;1152.00;;;;;;5067758;28;20278;-73
2021/04/17 11:34:51;;;;;;;;;;;358.40;1177.60;;;;;;5054116;28;19905;-72
2021/04/17 11:37:17;;;;;;;;;;;358.50;1177.60;;;;;;5035505;28;20289;-71
2021/04/17 11:39:43;;;;;;;;;;;358.70;1203.20;;;;;;5062516;22;19964;-72
2021/04/17 11:42:10;;;;;;;;;;;358.70;1177.60;;;;;;5054303;28;19905;-73
2021/04/17 11:44:37;;;;;;;;;;;358.80;1177.60;;;;;;5053956;28;20465;-72
2021/04/17 11:47:02;;;;;;;;;;;358.90;1177.60;;;;;;5054027;28;19995;-72
2021/04/17 11:49:28;;;;;;;;;;;358.80;1177.60;;;;;;5053601;28;19979;-73
2021/04/17 11:51:53;;;;;;;;;;;358.80;1177.60;;;;;;5053604;28;20020;-72
2021/04/17 11:54:19;;;;;;;;;;;358.60;1203.20;;;;;;5053369;28;20385;-69
2021/04/17 11:56:44;;;;;;;;;;;358.60;1203.20;;;;;;5053451;28;19999;-71
2021/04/17 11:59:10;;;;;;;;;;;358.70;1228.80;;;;;;5062138;22;19925;-73
2021/04/17 12:01:35;;;;;;;;;;;358.60;1228.80;;;;;;5053332;28;19991;-73
2021/04/17 12:04:01;;;;;;;;;;;333.60;1305.60;;;;;;5048653;28;19916;-72
2021/04/17 12:06:29;;;;;;;;;;;333.70;1280.00;;;;;;5037117;28;19944;-72
2021/04/17 12:08:55;;;;;;;;;;;333.60;1356.80;;;;;;5015988;28;19992;-73
2021/04/17 12:11:20;;;;;;;;;;;333.50;1356.80;;;;;;5034595;28;19913;-73
2021/04/17 12:13:46;;;;;;;;;;;333.40;1408.00;;;;;;5053367;28;20335;-74
2021/04/17 12:16:11;;;;;;;;;;;333.40;1433.60;;;;;;5035826;28;19904;-74
2021/04/17 12:18:37;;;;;;;;;;;333.30;1433.60;;;;;;5052315;28;19940;-74
2021/04/17 12:21:03;;;;;;;;;;;333.40;1408.00;;;;;;5053234;28;19905;-73
2021/04/17 12:23:28;;;;;;;;;;;333.40;1433.60;;;;;;5053049;28;19904;-73
2021/04/17 12:25:54;;;;;;;;;;;333.30;1408.00;;;;;;5053251;28;19912;-73
2021/04/17 12:28:19;;;;;;;;;;;333.20;1484.80;;;;;;5052890;28;20319;-74
2021/04/17 12:30:45;;;;;;;;;;;333.10;1536.00;;;;;;5038581;28;19905;-74
2021/04/17 12:33:11;;;;;;;;;;;333.20;1561.60;;;;;;5047574;28;20011;-73
2021/04/17 12:35:38;;;;;;;;;;;332.90;1510.40;;;;;;5043015;28;19912;-74
2021/04/17 12:38:03;;;;;;;;;;;332.90;1587.20;;;;;;5047172;28;19926;-74
2021/04/17 12:40:29;;;;;;;;;;;333.00;1561.60;;;;;;5044903;28;19931;-74
2021/04/17 12:42:54;;;;;;;;;;;332.90;1561.60;;;;;;5045064;28;19904;-72
2021/04/17 12:45:21;;;;;;;;;;;332.90;1561.60;;;;;;5036897;28;20333;-73
2021/04/17 12:47:46;;;;;;;;;;;308.10;1587.20;;;;;;5035619;28;19920;-73
2021/04/17 12:50:12;;;;;;;;;;;308.00;1638.40;;;;;;5051970;22;20375;-74
2021/04/17 12:52:38;;;;;;;;;;;308.10;1638.40;;;;;;5043336;28;19913;-73
2021/04/17 12:55:04;;;;;;;;;;;308.00;1638.40;;;;;;5038451;28;19971;-73
2021/04/17 12:57:29;;;;;;;;;;;308.00;1612.80;;;;;;5033039;28;19912;-73
2021/04/17 12:59:55;;;;;;;;;;;308.00;1612.80;;;;;;5020789;28;19905;-73
2021/04/17 13:02:20;;;;;;;;;;;308.00;1638.40;;;;;;5039962;28;19912;-73
2021/04/17 13:04:46;;;;;;;;;;;308.00;1715.20;;;;;;5041666;28;19913;-73
2021/04/17 13:07:12;;;;;;;;;;;;;;;;;;5020719;28;19905;-73
2021/04/17 13:09:38;;;;;;;;;;;;;;;;;;5148681;22;19927;-72
2021/04/17 13:12:04;;;;;;;;;;;;;;;;;;5054433;28;19924;-74
2021/04/17 13:14:30;;;;;;;;;;;;;;;;;;5072412;28;19909;-74
2021/04/17 13:16:56;;;;;;;;;;;;;;;;;;5072118;28;19904;-74
2021/04/17 13:19:22;;;;;;;;;;;332.80;1664.00;;;;;;5072539;28;19904;-72
2021/04/17 13:21:48;;;;;;;;;;;307.90;1664.00;;;;;;5071949;28;19935;-72
2021/04/17 13:24:13;;;;;;;;;;;308.10;1638.40;;;;;;5072809;28;20354;-73
2021/04/17 13:26:39;;;;;;;;;;;332.80;1715.20;;;;;;5072382;28;19908;-71
2021/04/17 13:29:05;;;;;;;;;;;332.80;1638.40;;;;;;5194699;22;19930;-73
2021/04/17 13:31:30;;;;;;;;;;;332.80;1689.60;;;;;;5020548;28;19960;-74
2021/04/17 13:33:56;;;;;;;;;;;;;;;;;;5024592;28;19905;-73
2021/04/17 13:36:22;;;;;;;;;;;;;;;;;;5026573;28;20350;-73
2021/04/17 13:38:48;;;;;;;;;;;;;;;;;;5020634;28;19912;-74
2021/04/17 13:41:14;;;;;;;;;;;;;;;;;;5028513;28;19912;-73
2021/04/17 13:43:40;;;;;;;;;;;;;;;;;;5018334;28;20288;-72
2021/04/17 13:46:06;;;;;;;;;;;308.10;1612.80;;;;;;5017494;28;19909;-72
2021/04/17 13:48:31;;;;;;;;;;;307.90;1689.60;;;;;;5017252;28;19905;-71
2021/04/17 13:50:57;;;;;;;;;;;307.70;1664.00;;;;;;5015915;28;19975;-70
2021/04/17 13:53:23;;;;;;;;;;;307.70;1689.60;;;;;;5149513;22;20019;-70
2021/04/17 13:55:48;;;;;;;;;;;307.70;1715.20;;;;;;5016030;28;20023;-72
2021/04/17 13:58:14;;;;;;;;;;;307.60;1664.00;;;;;;5015965;28;19960;-72
2021/04/17 14:00:40;;;;;;;;;;;307.60;1715.20;;;;;;5016311;28;19956;-77
2021/04/17 14:03:05;;;;;;;;;;;307.60;1740.80;;;;;;5016156;28;19995;-77
2021/04/17 14:05:31;;;;;;;;;;;307.60;1766.40;;;;;;4998729;28;19916;-78
2021/04/17 14:07:57;;;;;;;;;;;307.50;1766.40;;;;;;5015723;28;20448;-77
2021/04/17 14:10:23;;;;;;;;;;;307.40;1766.40;;;;;;5015946;28;20322;-77
2021/04/17 14:12:49;;;;;;;;;;;307.30;1766.40;;;;;;5014223;28;19928;-78